AYN7107 UAAA-UAII
Flight info
| Callsign | AYN7107 |
|---|---|
| Flight time | 1h 1m |
| Altitude | 38000 |
| Route | EKLAT Z370 AGLEK Z817 TAR N143 ANESA Z580 KOLAM N143 TURIK TURIK4H |
| Aircraft | A20N/M-SDE2E3FGHIRWXY/LB1 |
Departure
| Time | 2026-05-04 11:44 |
|---|---|
| Airport | Almaty International Airport (UAAA) |
Arrival
| Time | 2026-05-04 12:45 |
|---|---|
| Airport | Shymkent International Airport (UAII) |
| Time | Latitude | Longitude | Altitude | Speed | Heading |
|---|---|---|---|---|---|
| 2026-05-04 10:56 | 43.34860 | 77.01841 | 2222 ft | 0 kts | 184° |
| 2026-05-04 11:34 | 43.34852 | 77.01840 | 2223 ft | 3 kts | 184° |
| 2026-05-04 11:34 | 43.34815 | 77.01849 | 2223 ft | 6 kts | 135° |
| 2026-05-04 11:35 | 43.34801 | 77.01901 | 2224 ft | 6 kts | 86° |
| 2026-05-04 11:35 | 43.34799 | 77.01965 | 2224 ft | 7 kts | 96° |
| 2026-05-04 11:35 | 43.34793 | 77.02037 | 2224 ft | 8 kts | 96° |
| 2026-05-04 11:35 | 43.34790 | 77.02119 | 2224 ft | 9 kts | 93° |
| 2026-05-04 11:36 | 43.34787 | 77.02209 | 2225 ft | 9 kts | 92° |
| 2026-05-04 11:36 | 43.34784 | 77.02290 | 2227 ft | 7 kts | 93° |
| 2026-05-04 11:36 | 43.34781 | 77.02361 | 2229 ft | 7 kts | 95° |
| 2026-05-04 11:36 | 43.34776 | 77.02443 | 2229 ft | 9 kts | 93° |
| 2026-05-04 11:37 | 43.34776 | 77.02542 | 2229 ft | 10 kts | 81° |
| 2026-05-04 11:37 | 43.34798 | 77.02644 | 2229 ft | 11 kts | 61° |
| 2026-05-04 11:37 | 43.34846 | 77.02747 | 2228 ft | 13 kts | 55° |
| 2026-05-04 11:37 | 43.34913 | 77.02879 | 2227 ft | 18 kts | 53° |
| 2026-05-04 11:38 | 43.34999 | 77.03047 | 2226 ft | 30 kts | 57° |
| 2026-05-04 11:38 | 43.35162 | 77.03379 | 2228 ft | 49 kts | 55° |
| 2026-05-04 11:38 | 43.35343 | 77.03753 | 2232 ft | 45 kts | 56° |
| 2026-05-04 11:38 | 43.35512 | 77.04094 | 2234 ft | 41 kts | 56° |
| 2026-05-04 11:39 | 43.35665 | 77.04404 | 2236 ft | 37 kts | 56° |
| 2026-05-04 11:39 | 43.35805 | 77.04691 | 2238 ft | 34 kts | 56° |
| 2026-05-04 11:40 | 43.36733 | 77.06562 | 2243 ft | 42 kts | 56° |
| 2026-05-04 11:41 | 43.36878 | 77.06849 | 2237 ft | 28 kts | 56° |
| 2026-05-04 11:41 | 43.36986 | 77.06982 | 2235 ft | 9 kts | 15° |
| 2026-05-04 11:41 | 43.37034 | 77.07044 | 2234 ft | 10 kts | 105° |
| 2026-05-04 11:41 | 43.36977 | 77.07080 | 2236 ft | 6 kts | 202° |
| 2026-05-04 11:42 | 43.36958 | 77.07023 | 2236 ft | 7 kts | 256° |
| 2026-05-04 11:42 | 43.36941 | 77.06979 | 2236 ft | 0 kts | 233° |
| 2026-05-04 11:42 | 43.36940 | 77.06976 | 2236 ft | 0 kts | 233° |
| 2026-05-04 11:42 | 43.36938 | 77.06973 | 2236 ft | 0 kts | 233° |
| 2026-05-04 11:43 | 43.36937 | 77.06972 | 2236 ft | 0 kts | 233° |
| 2026-05-04 11:43 | 43.36936 | 77.06970 | 2236 ft | 0 kts | 233° |
| 2026-05-04 11:43 | 43.36936 | 77.06969 | 2236 ft | 0 kts | 233° |
| 2026-05-04 11:43 | 43.36934 | 77.06966 | 2236 ft | 2 kts | 233° |
| 2026-05-04 11:44 | 43.36773 | 77.06643 | 2243 ft | 82 kts | 235° |
| 2026-05-04 11:44 | 43.36308 | 77.05714 | 2240 ft | 151 kts | 236° |
| 2026-05-04 11:44 | 43.35639 | 77.04337 | 2518 ft | 185 kts | 235° |
| 2026-05-04 11:44 | 43.34900 | 77.02787 | 2937 ft | 207 kts | 237° |
| 2026-05-04 11:45 | 43.34081 | 77.01138 | 3522 ft | 221 kts | 234° |
| 2026-05-04 11:45 | 43.33147 | 76.99357 | 4137 ft | 239 kts | 236° |
| 2026-05-04 11:45 | 43.32500 | 76.97173 | 4736 ft | 257 kts | 266° |
| 2026-05-04 11:45 | 43.32571 | 76.94671 | 5400 ft | 272 kts | 277° |
| 2026-05-04 11:46 | 43.32793 | 76.92118 | 6272 ft | 278 kts | 278° |
| 2026-05-04 11:46 | 43.33005 | 76.89453 | 7201 ft | 282 kts | 277° |
| 2026-05-04 11:46 | 43.33183 | 76.86779 | 8042 ft | 286 kts | 276° |
| 2026-05-04 11:46 | 43.33332 | 76.84071 | 8662 ft | 288 kts | 276° |
| 2026-05-04 11:47 | 43.33463 | 76.81320 | 9016 ft | 290 kts | 276° |
| 2026-05-04 11:47 | 43.33582 | 76.78565 | 9161 ft | 292 kts | 275° |
| 2026-05-04 11:47 | 43.33696 | 76.75754 | 9611 ft | 300 kts | 275° |
| 2026-05-04 11:47 | 43.33803 | 76.72938 | 10547 ft | 299 kts | 275° |
| 2026-05-04 11:48 | 43.33911 | 76.70067 | 11310 ft | 307 kts | 275° |
| 2026-05-04 11:48 | 43.34021 | 76.67101 | 12005 ft | 314 kts | 275° |
| 2026-05-04 11:48 | 43.34129 | 76.64113 | 12823 ft | 317 kts | 274° |
| 2026-05-04 11:48 | 43.34236 | 76.61127 | 13639 ft | 320 kts | 274° |
| 2026-05-04 11:49 | 43.34344 | 76.58073 | 14413 ft | 323 kts | 274° |
| 2026-05-04 11:49 | 43.34468 | 76.54998 | 15165 ft | 327 kts | 275° |
| 2026-05-04 11:49 | 43.34611 | 76.51876 | 15936 ft | 330 kts | 275° |
| 2026-05-04 11:49 | 43.34752 | 76.48759 | 16680 ft | 333 kts | 275° |
| 2026-05-04 11:50 | 43.34893 | 76.45596 | 17420 ft | 336 kts | 275° |
| 2026-05-04 11:50 | 43.35034 | 76.42394 | 18070 ft | 339 kts | 275° |
| 2026-05-04 11:50 | 43.35175 | 76.39148 | 18820 ft | 342 kts | 275° |
| 2026-05-04 11:50 | 43.35314 | 76.35900 | 19514 ft | 344 kts | 275° |
| 2026-05-04 11:51 | 43.35453 | 76.32600 | 20177 ft | 347 kts | 274° |
| 2026-05-04 11:51 | 43.35591 | 76.29297 | 20852 ft | 350 kts | 274° |
| 2026-05-04 11:51 | 43.35728 | 76.25984 | 21502 ft | 353 kts | 274° |
| 2026-05-04 11:51 | 43.35869 | 76.22584 | 22142 ft | 357 kts | 274° |
| 2026-05-04 11:52 | 43.36008 | 76.19160 | 22661 ft | 364 kts | 273° |
| 2026-05-04 11:52 | 43.36148 | 76.15687 | 23240 ft | 368 kts | 273° |
| 2026-05-04 11:52 | 43.36287 | 76.12209 | 23851 ft | 372 kts | 273° |
| 2026-05-04 11:52 | 43.36429 | 76.08630 | 24468 ft | 375 kts | 273° |
| 2026-05-04 11:53 | 43.36568 | 76.05074 | 25062 ft | 378 kts | 273° |
| 2026-05-04 11:53 | 43.36711 | 76.01442 | 25608 ft | 381 kts | 273° |
| 2026-05-04 11:53 | 43.36852 | 75.97798 | 26127 ft | 385 kts | 273° |
| 2026-05-04 11:53 | 43.36992 | 75.94169 | 26646 ft | 388 kts | 272° |
| 2026-05-04 11:55 | 43.37981 | 75.67624 | 29870 ft | 407 kts | 272° |
| 2026-05-04 11:55 | 43.38120 | 75.63751 | 30245 ft | 409 kts | 272° |
| 2026-05-04 11:56 | 43.38258 | 75.59848 | 30649 ft | 411 kts | 272° |
| 2026-05-04 11:56 | 43.38394 | 75.55943 | 31114 ft | 410 kts | 271° |
| 2026-05-04 11:56 | 43.38529 | 75.52068 | 31581 ft | 410 kts | 271° |
| 2026-05-04 11:56 | 43.38664 | 75.48143 | 32043 ft | 409 kts | 271° |
| 2026-05-04 11:57 | 43.38796 | 75.44265 | 32485 ft | 409 kts | 271° |
| 2026-05-04 11:57 | 43.38926 | 75.40405 | 32867 ft | 409 kts | 271° |
| 2026-05-04 11:57 | 43.39055 | 75.36507 | 33198 ft | 411 kts | 271° |
| 2026-05-04 11:57 | 43.39185 | 75.32585 | 33534 ft | 412 kts | 270° |
| 2026-05-04 11:58 | 43.39313 | 75.28655 | 33862 ft | 413 kts | 270° |
| 2026-05-04 11:58 | 43.39440 | 75.24712 | 34127 ft | 415 kts | 270° |
| 2026-05-04 11:58 | 43.39566 | 75.20750 | 34147 ft | 416 kts | 270° |
| 2026-05-04 11:59 | 43.39814 | 75.12859 | 34144 ft | 415 kts | 270° |
| 2026-05-04 11:59 | 43.40057 | 75.04933 | 34138 ft | 415 kts | 270° |
| 2026-05-04 12:00 | 43.40297 | 74.96948 | 34283 ft | 424 kts | 270° |
| 2026-05-04 12:00 | 43.40417 | 74.92895 | 34422 ft | 429 kts | 270° |
| 2026-05-04 12:00 | 43.40537 | 74.88799 | 34620 ft | 431 kts | 270° |
| 2026-05-04 12:00 | 43.40655 | 74.84657 | 34903 ft | 430 kts | 270° |
| 2026-05-04 12:01 | 43.40772 | 74.80573 | 35180 ft | 429 kts | 270° |
| 2026-05-04 12:01 | 43.40887 | 74.76508 | 35435 ft | 428 kts | 270° |
| 2026-05-04 12:02 | 43.41537 | 74.52246 | 36986 ft | 423 kts | 271° |
| 2026-05-04 12:03 | 43.41640 | 74.48220 | 37121 ft | 423 kts | 271° |
| 2026-05-04 12:03 | 43.41743 | 74.44152 | 37117 ft | 422 kts | 271° |
| 2026-05-04 12:03 | 43.41940 | 74.36115 | 37120 ft | 422 kts | 270° |
| 2026-05-04 12:04 | 43.41753 | 74.28139 | 37117 ft | 421 kts | 263° |
| 2026-05-04 12:04 | 43.40878 | 74.20184 | 37113 ft | 421 kts | 257° |
| 2026-05-04 12:05 | 43.39514 | 74.12360 | 37110 ft | 422 kts | 256° |
| 2026-05-04 12:05 | 43.38122 | 74.04567 | 37111 ft | 422 kts | 256° |
| 2026-05-04 12:06 | 43.36721 | 73.96744 | 37168 ft | 425 kts | 256° |
| 2026-05-04 12:06 | 43.36017 | 73.92821 | 37398 ft | 425 kts | 256° |
| 2026-05-04 12:06 | 43.35311 | 73.88894 | 37583 ft | 425 kts | 256° |
| 2026-05-04 12:07 | 43.33883 | 73.80957 | 37591 ft | 435 kts | 256° |
| 2026-05-04 12:07 | 43.32412 | 73.72822 | 37594 ft | 443 kts | 256° |
| 2026-05-04 12:08 | 43.30917 | 73.64595 | 37587 ft | 450 kts | 256° |
| 2026-05-04 12:08 | 43.29392 | 73.56240 | 37603 ft | 456 kts | 256° |
| 2026-05-04 12:09 | 43.27845 | 73.47799 | 37590 ft | 459 kts | 256° |
| 2026-05-04 12:09 | 43.26283 | 73.39320 | 37588 ft | 461 kts | 256° |
| 2026-05-04 12:10 | 43.24710 | 73.30814 | 37582 ft | 461 kts | 255° |
| 2026-05-04 12:10 | 43.23134 | 73.22333 | 37583 ft | 462 kts | 255° |
| 2026-05-04 12:11 | 43.21544 | 73.13822 | 37583 ft | 461 kts | 255° |
| 2026-05-04 12:11 | 43.19954 | 73.05351 | 37575 ft | 461 kts | 255° |
| 2026-05-04 12:12 | 43.18351 | 72.96876 | 37576 ft | 463 kts | 255° |
| 2026-05-04 12:12 | 43.16724 | 72.88322 | 37588 ft | 463 kts | 255° |
| 2026-05-04 12:14 | 43.10270 | 72.54781 | 37575 ft | 452 kts | 255° |
| 2026-05-04 12:15 | 43.08662 | 72.46512 | 37579 ft | 451 kts | 255° |
| 2026-05-04 12:15 | 43.07061 | 72.38319 | 37594 ft | 446 kts | 255° |
| 2026-05-04 12:16 | 43.05464 | 72.30177 | 37578 ft | 446 kts | 255° |
| 2026-05-04 12:16 | 43.03853 | 72.22000 | 37586 ft | 447 kts | 255° |
| 2026-05-04 12:17 | 43.02238 | 72.13831 | 37579 ft | 447 kts | 255° |
| 2026-05-04 12:17 | 43.00620 | 72.05679 | 37589 ft | 447 kts | 255° |
| 2026-05-04 12:18 | 42.98988 | 71.97503 | 37582 ft | 447 kts | 255° |
| 2026-05-04 12:18 | 42.97353 | 71.89349 | 37584 ft | 447 kts | 255° |
| 2026-05-04 12:19 | 42.95784 | 71.81174 | 37601 ft | 447 kts | 258° |
| 2026-05-04 12:19 | 42.94444 | 71.72933 | 37588 ft | 447 kts | 258° |
| 2026-05-04 12:20 | 42.93112 | 71.64726 | 37175 ft | 444 kts | 258° |
| 2026-05-04 12:20 | 42.92437 | 71.60588 | 36455 ft | 445 kts | 258° |
| 2026-05-04 12:20 | 42.91772 | 71.56515 | 35869 ft | 445 kts | 257° |
| 2026-05-04 12:21 | 42.91092 | 71.52379 | 35295 ft | 445 kts | 257° |
| 2026-05-04 12:21 | 42.90419 | 71.48300 | 34683 ft | 446 kts | 257° |
| 2026-05-04 12:21 | 42.89736 | 71.44173 | 33935 ft | 447 kts | 257° |
| 2026-05-04 12:21 | 42.89045 | 71.40029 | 33111 ft | 448 kts | 257° |
| 2026-05-04 12:22 | 42.88359 | 71.35906 | 32312 ft | 449 kts | 257° |
| 2026-05-04 12:22 | 42.87652 | 71.31767 | 31532 ft | 448 kts | 254° |
| 2026-05-04 12:22 | 42.86788 | 71.27696 | 30968 ft | 442 kts | 251° |
| 2026-05-04 12:22 | 42.85772 | 71.23828 | 30297 ft | 431 kts | 247° |
| 2026-05-04 12:23 | 42.84674 | 71.20130 | 29340 ft | 425 kts | 246° |
| 2026-05-04 12:23 | 42.83567 | 71.16461 | 28788 ft | 409 kts | 246° |
| 2026-05-04 12:23 | 42.82499 | 71.12937 | 28333 ft | 398 kts | 246° |
| 2026-05-04 12:23 | 42.81460 | 71.09499 | 27892 ft | 389 kts | 246° |
| 2026-05-04 12:24 | 42.80454 | 71.06171 | 27478 ft | 384 kts | 246° |
| 2026-05-04 12:24 | 42.79445 | 71.02837 | 27052 ft | 382 kts | 246° |
| 2026-05-04 12:24 | 42.78435 | 70.99504 | 26629 ft | 379 kts | 246° |
| 2026-05-04 12:24 | 42.77432 | 70.96191 | 26204 ft | 376 kts | 246° |
| 2026-05-04 12:25 | 42.76438 | 70.92920 | 25790 ft | 374 kts | 246° |
| 2026-05-04 12:25 | 42.75457 | 70.89691 | 25387 ft | 371 kts | 246° |
| 2026-05-04 12:25 | 42.74474 | 70.86461 | 24979 ft | 368 kts | 246° |
| 2026-05-04 12:25 | 42.73509 | 70.83289 | 24571 ft | 366 kts | 246° |
| 2026-05-04 12:26 | 42.72538 | 70.80100 | 24157 ft | 363 kts | 246° |
| 2026-05-04 12:26 | 42.71584 | 70.76976 | 23742 ft | 361 kts | 246° |
| 2026-05-04 12:26 | 42.70629 | 70.73853 | 23328 ft | 359 kts | 246° |
| 2026-05-04 12:26 | 42.69671 | 70.70721 | 22915 ft | 357 kts | 246° |
| 2026-05-04 12:27 | 42.68722 | 70.67632 | 22484 ft | 355 kts | 246° |
| 2026-05-04 12:27 | 42.67776 | 70.64548 | 22052 ft | 354 kts | 247° |
| 2026-05-04 12:27 | 42.66837 | 70.61459 | 21608 ft | 353 kts | 248° |
| 2026-05-04 12:27 | 42.65982 | 70.58364 | 21166 ft | 353 kts | 249° |
| 2026-05-04 12:28 | 42.65126 | 70.55215 | 20708 ft | 353 kts | 249° |
| 2026-05-04 12:28 | 42.64280 | 70.52106 | 20253 ft | 352 kts | 249° |
| 2026-05-04 12:28 | 42.63434 | 70.49004 | 19806 ft | 352 kts | 249° |
| 2026-05-04 12:28 | 42.62596 | 70.45935 | 19344 ft | 352 kts | 249° |
| 2026-05-04 12:29 | 42.61742 | 70.42818 | 18900 ft | 351 kts | 249° |
| 2026-05-04 12:29 | 42.60887 | 70.39706 | 18465 ft | 350 kts | 249° |
| 2026-05-04 12:29 | 42.60042 | 70.36635 | 18040 ft | 349 kts | 249° |
| 2026-05-04 12:29 | 42.59194 | 70.33561 | 17612 ft | 347 kts | 249° |
| 2026-05-04 12:30 | 42.58360 | 70.30538 | 17208 ft | 346 kts | 249° |
| 2026-05-04 12:30 | 42.57513 | 70.27474 | 16771 ft | 344 kts | 249° |
| 2026-05-04 12:30 | 42.56676 | 70.24451 | 16374 ft | 343 kts | 248° |
| 2026-05-04 12:30 | 42.55848 | 70.21465 | 15953 ft | 341 kts | 248° |
| 2026-05-04 12:31 | 42.55017 | 70.18471 | 15556 ft | 339 kts | 248° |
| 2026-05-04 12:31 | 42.54185 | 70.15478 | 15134 ft | 337 kts | 248° |
| 2026-05-04 12:31 | 42.53368 | 70.12547 | 14765 ft | 335 kts | 248° |
| 2026-05-04 12:31 | 42.52541 | 70.09579 | 14350 ft | 333 kts | 248° |
| 2026-05-04 12:32 | 42.51759 | 70.06647 | 13947 ft | 331 kts | 251° |
| 2026-05-04 12:32 | 42.50400 | 70.00755 | 13160 ft | 327 kts | 251° |
| 2026-05-04 12:32 | 42.49728 | 69.97817 | 12756 ft | 325 kts | 251° |
| 2026-05-04 12:33 | 42.49061 | 69.94912 | 12359 ft | 323 kts | 251° |
| 2026-05-04 12:33 | 42.48403 | 69.92055 | 11972 ft | 321 kts | 251° |
| 2026-05-04 12:33 | 42.47740 | 69.89180 | 11578 ft | 320 kts | 251° |
| 2026-05-04 12:33 | 42.47079 | 69.86318 | 11156 ft | 319 kts | 251° |
| 2026-05-04 12:34 | 42.46415 | 69.83453 | 10756 ft | 318 kts | 251° |
| 2026-05-04 12:34 | 42.45757 | 69.80611 | 10347 ft | 316 kts | 251° |
| 2026-05-04 12:34 | 42.45108 | 69.77808 | 10132 ft | 307 kts | 251° |
| 2026-05-04 12:34 | 42.44489 | 69.75137 | 10045 ft | 294 kts | 251° |
| 2026-05-04 12:35 | 42.43878 | 69.72514 | 9673 ft | 292 kts | 251° |
| 2026-05-04 12:35 | 42.43270 | 69.69905 | 9310 ft | 291 kts | 251° |
| 2026-05-04 12:35 | 42.42659 | 69.67287 | 8940 ft | 290 kts | 252° |
| 2026-05-04 12:35 | 42.42056 | 69.64705 | 8580 ft | 288 kts | 252° |
| 2026-05-04 12:36 | 42.41461 | 69.62161 | 8237 ft | 286 kts | 252° |
| 2026-05-04 12:36 | 42.40861 | 69.59595 | 7886 ft | 284 kts | 252° |
| 2026-05-04 12:36 | 42.40267 | 69.57054 | 7519 ft | 283 kts | 252° |
| 2026-05-04 12:36 | 42.39673 | 69.54527 | 7234 ft | 278 kts | 252° |
| 2026-05-04 12:37 | 42.39110 | 69.52122 | 7201 ft | 257 kts | 252° |
| 2026-05-04 12:37 | 42.38582 | 69.49868 | 7180 ft | 251 kts | 252° |
| 2026-05-04 12:37 | 42.38065 | 69.47663 | 7128 ft | 239 kts | 252° |
| 2026-05-04 12:37 | 42.37574 | 69.45575 | 7090 ft | 226 kts | 254° |
| 2026-05-04 12:38 | 42.37374 | 69.43512 | 6936 ft | 220 kts | 277° |
| 2026-05-04 12:38 | 42.37718 | 69.41516 | 6618 ft | 221 kts | 287° |
| 2026-05-04 12:38 | 42.38184 | 69.39508 | 6269 ft | 224 kts | 288° |
| 2026-05-04 12:38 | 42.38654 | 69.37487 | 5924 ft | 227 kts | 287° |
| 2026-05-04 12:39 | 42.39104 | 69.35482 | 5587 ft | 223 kts | 287° |
| 2026-05-04 12:39 | 42.39539 | 69.33495 | 5274 ft | 216 kts | 286° |
| 2026-05-04 12:39 | 42.39948 | 69.31594 | 5034 ft | 208 kts | 287° |
| 2026-05-04 12:39 | 42.40345 | 69.29741 | 4685 ft | 203 kts | 287° |
| 2026-05-04 12:40 | 42.40725 | 69.27964 | 4377 ft | 195 kts | 287° |
| 2026-05-04 12:40 | 42.41107 | 69.26241 | 4086 ft | 186 kts | 293° |
| 2026-05-04 12:40 | 42.41891 | 69.25033 | 3885 ft | 164 kts | 342° |
| 2026-05-04 12:40 | 42.42931 | 69.25164 | 3883 ft | 148 kts | 37° |
| 2026-05-04 12:41 | 42.43347 | 69.26338 | 3888 ft | 144 kts | 96° |
| 2026-05-04 12:41 | 42.42948 | 69.27560 | 3942 ft | 144 kts | 121° |
| 2026-05-04 12:41 | 42.42372 | 69.28677 | 3834 ft | 143 kts | 124° |
| 2026-05-04 12:41 | 42.41785 | 69.29754 | 3652 ft | 142 kts | 124° |
| 2026-05-04 12:42 | 42.41198 | 69.30825 | 3475 ft | 142 kts | 124° |
| 2026-05-04 12:42 | 42.40612 | 69.31892 | 3303 ft | 141 kts | 124° |
| 2026-05-04 12:42 | 42.40055 | 69.32969 | 3137 ft | 140 kts | 119° |
| 2026-05-04 12:42 | 42.39592 | 69.34137 | 2974 ft | 140 kts | 112° |
| 2026-05-04 12:43 | 42.39219 | 69.35345 | 2808 ft | 140 kts | 109° |
| 2026-05-04 12:43 | 42.38890 | 69.36592 | 2630 ft | 140 kts | 105° |
| 2026-05-04 12:43 | 42.38604 | 69.37839 | 2457 ft | 139 kts | 104° |
| 2026-05-04 12:43 | 42.38338 | 69.39104 | 2225 ft | 139 kts | 103° |
| 2026-05-04 12:44 | 42.38072 | 69.40357 | 1988 ft | 139 kts | 104° |
| 2026-05-04 12:44 | 42.37799 | 69.41604 | 1827 ft | 138 kts | 104° |
| 2026-05-04 12:44 | 42.37525 | 69.42854 | 1680 ft | 138 kts | 104° |
| 2026-05-04 12:44 | 42.37253 | 69.44094 | 1526 ft | 137 kts | 104° |
| 2026-05-04 12:45 | 42.36991 | 69.45324 | 1389 ft | 136 kts | 104° |
| 2026-05-04 12:45 | 42.36736 | 69.46506 | 1331 ft | 122 kts | 104° |
| 2026-05-04 12:45 | 42.36539 | 69.47428 | 1351 ft | 76 kts | 104° |
| 2026-05-04 12:45 | 42.36432 | 69.47911 | 1357 ft | 41 kts | 105° |
| 2026-05-04 12:46 | 42.36361 | 69.48254 | 1364 ft | 34 kts | 107° |
| 2026-05-04 12:46 | 42.36309 | 69.48500 | 1366 ft | 9 kts | 94° |
| 2026-05-04 12:46 | 42.36353 | 69.48560 | 1366 ft | 9 kts | 19° |
| 2026-05-04 12:46 | 42.36396 | 69.48588 | 1367 ft | 2 kts | 44° |
| 2026-05-04 12:47 | 42.36399 | 69.48592 | 1367 ft | 0 kts | 55° |
| 2026-05-04 12:47 | 42.36402 | 69.48608 | 1367 ft | 2 kts | 79° |
| 2026-05-04 12:47 | 42.36402 | 69.48640 | 1368 ft | 4 kts | 96° |
| 2026-05-04 12:47 | 42.36391 | 69.48706 | 1369 ft | 10 kts | 105° |
| 2026-05-04 12:48 | 42.36370 | 69.48798 | 1371 ft | 9 kts | 107° |
| 2026-05-04 12:48 | 42.36350 | 69.48886 | 1372 ft | 9 kts | 107° |
| 2026-05-04 12:48 | 42.36333 | 69.48965 | 1374 ft | 8 kts | 105° |
| 2026-05-04 12:48 | 42.36318 | 69.49036 | 1376 ft | 7 kts | 105° |
| 2026-05-04 12:49 | 42.36302 | 69.49115 | 1377 ft | 9 kts | 105° |
| 2026-05-04 12:49 | 42.36287 | 69.49192 | 1379 ft | 4 kts | 104° |
| 2026-05-04 12:49 | 42.36280 | 69.49227 | 1379 ft | 3 kts | 104° |
| 2026-05-04 12:49 | 42.36280 | 69.49267 | 1379 ft | 5 kts | 71° |
| 2026-05-04 12:50 | 42.36323 | 69.49317 | 1378 ft | 11 kts | 20° |
| 2026-05-04 12:50 | 42.36394 | 69.49274 | 1377 ft | 13 kts | 298° |
| 2026-05-04 12:50 | 42.36435 | 69.49154 | 1376 ft | 15 kts | 294° |
| 2026-05-04 12:50 | 42.36465 | 69.49092 | 1374 ft | 6 kts | 334° |
| 2026-05-04 12:51 | 42.36503 | 69.49100 | 1374 ft | 6 kts | 23° |
| 2026-05-04 12:51 | 42.36530 | 69.49116 | 1374 ft | 2 kts | 26° |
| 2026-05-04 12:51 | 42.36533 | 69.49118 | 1374 ft | 0 kts | 26° |